sensor_id;sensor_type;location;lat;lon;timestamp;P1;durP1;ratioP1;P2;durP2;ratioP2
21235;SDS011;10775;42.678;26.324;2023-04-06T00:00:22;3.90;;;2.88;;
21235;SDS011;10775;42.678;26.324;2023-04-06T00:02:48;4.20;;;2.83;;
21235;SDS011;10775;42.678;26.324;2023-04-06T00:05:14;3.55;;;2.58;;
21235;SDS011;10775;42.678;26.324;2023-04-06T00:07:40;3.85;;;2.78;;
21235;SDS011;10775;42.678;26.324;2023-04-06T00:10:05;4.18;;;2.63;;
21235;SDS011;10775;42.678;26.324;2023-04-06T00:12:31;4.65;;;2.83;;
21235;SDS011;10775;42.678;26.324;2023-04-06T00:14:57;3.63;;;2.50;;
21235;SDS011;10775;42.678;26.324;2023-04-06T00:17:22;3.47;;;2.45;;
21235;SDS011;10775;42.678;26.324;2023-04-06T00:19:48;3.70;;;2.70;;
21235;SDS011;10775;42.678;26.324;2023-04-06T00:22:13;4.43;;;2.83;;
21235;SDS011;10775;42.678;26.324;2023-04-06T00:24:39;3.85;;;2.97;;
21235;SDS011;10775;42.678;26.324;2023-04-06T00:27:05;3.60;;;2.63;;
21235;SDS011;10775;42.678;26.324;2023-04-06T00:29:30;4.20;;;2.83;;
21235;SDS011;10775;42.678;26.324;2023-04-06T00:31:56;3.47;;;2.75;;
21235;SDS011;10775;42.678;26.324;2023-04-06T00:34:21;4.47;;;2.83;;
21235;SDS011;10775;42.678;26.324;2023-04-06T00:36:46;4.43;;;2.83;;
21235;SDS011;10775;42.678;26.324;2023-04-06T00:39:12;5.85;;;3.28;;
21235;SDS011;10775;42.678;26.324;2023-04-06T00:41:38;4.25;;;2.60;;
21235;SDS011;10775;42.678;26.324;2023-04-06T00:44:10;5.82;;;3.72;;
21235;SDS011;10775;42.678;26.324;2023-04-06T00:46:35;3.78;;;2.53;;
21235;SDS011;10775;42.678;26.324;2023-04-06T00:49:01;2.97;;;2.42;;
21235;SDS011;10775;42.678;26.324;2023-04-06T00:51:27;3.53;;;2.70;;
21235;SDS011;10775;42.678;26.324;2023-04-06T00:53:52;3.72;;;2.95;;
21235;SDS011;10775;42.678;26.324;2023-04-06T00:56:18;4.00;;;2.80;;
21235;SDS011;10775;42.678;26.324;2023-04-06T00:58:43;4.47;;;3.00;;
21235;SDS011;10775;42.678;26.324;2023-04-06T01:01:09;4.15;;;2.97;;
21235;SDS011;10775;42.678;26.324;2023-04-06T01:03:34;3.42;;;2.63;;
21235;SDS011;10775;42.678;26.324;2023-04-06T01:06:00;3.67;;;2.83;;
21235;SDS011;10775;42.678;26.324;2023-04-06T01:08:25;3.53;;;2.67;;
21235;SDS011;10775;42.678;26.324;2023-04-06T01:10:52;3.50;;;2.45;;
21235;SDS011;10775;42.678;26.324;2023-04-06T01:13:17;3.75;;;2.75;;
21235;SDS011;10775;42.678;26.324;2023-04-06T01:15:43;4.38;;;2.85;;
21235;SDS011;10775;42.678;26.324;2023-04-06T01:18:08;3.38;;;2.45;;
21235;SDS011;10775;42.678;26.324;2023-04-06T01:20:35;4.10;;;2.90;;
21235;SDS011;10775;42.678;26.324;2023-04-06T01:23:01;4.10;;;2.63;;
21235;SDS011;10775;42.678;26.324;2023-04-06T01:25:27;4.30;;;2.97;;
21235;SDS011;10775;42.678;26.324;2023-04-06T01:27:52;5.07;;;3.88;;
21235;SDS011;10775;42.678;26.324;2023-04-06T01:30:18;4.47;;;3.13;;
21235;SDS011;10775;42.678;26.324;2023-04-06T01:32:44;3.55;;;2.45;;
21235;SDS011;10775;42.678;26.324;2023-04-06T01:35:10;4.47;;;2.65;;
21235;SDS011;10775;42.678;26.324;2023-04-06T01:37:35;4.30;;;2.80;;
21235;SDS011;10775;42.678;26.324;2023-04-06T01:40:02;3.17;;;2.25;;
21235;SDS011;10775;42.678;26.324;2023-04-06T01:42:27;4.30;;;2.80;;
21235;SDS011;10775;42.678;26.324;2023-04-06T01:44:53;3.58;;;2.55;;
21235;SDS011;10775;42.678;26.324;2023-04-06T01:47:18;4.07;;;3.08;;
21235;SDS011;10775;42.678;26.324;2023-04-06T01:49:44;3.35;;;2.35;;
21235;SDS011;10775;42.678;26.324;2023-04-06T01:52:09;4.80;;;3.30;;
21235;SDS011;10775;42.678;26.324;2023-04-06T01:54:35;3.67;;;2.83;;
21235;SDS011;10775;42.678;26.324;2023-04-06T01:57:00;4.18;;;2.72;;
21235;SDS011;10775;42.678;26.324;2023-04-06T01:59:26;6.88;;;4.15;;
21235;SDS011;10775;42.678;26.324;2023-04-06T02:01:51;4.43;;;3.35;;
21235;SDS011;10775;42.678;26.324;2023-04-06T02:04:17;3.42;;;2.50;;
21235;SDS011;10775;42.678;26.324;2023-04-06T02:06:42;3.88;;;2.97;;
21235;SDS011;10775;42.678;26.324;2023-04-06T02:09:08;5.25;;;3.20;;
21235;SDS011;10775;42.678;26.324;2023-04-06T02:11:33;3.88;;;2.85;;
21235;SDS011;10775;42.678;26.324;2023-04-06T02:13:58;3.95;;;2.75;;
21235;SDS011;10775;42.678;26.324;2023-04-06T02:16:25;4.55;;;2.90;;
21235;SDS011;10775;42.678;26.324;2023-04-06T02:18:51;6.05;;;4.13;;
21235;SDS011;10775;42.678;26.324;2023-04-06T02:21:16;3.65;;;2.75;;
21235;SDS011;10775;42.678;26.324;2023-04-06T02:23:45;3.88;;;3.25;;
21235;SDS011;10775;42.678;26.324;2023-04-06T02:26:14;5.90;;;3.70;;
21235;SDS011;10775;42.678;26.324;2023-04-06T02:28:40;3.47;;;2.63;;
21235;SDS011;10775;42.678;26.324;2023-04-06T02:31:05;5.43;;;3.63;;
21235;SDS011;10775;42.678;26.324;2023-04-06T02:33:31;5.32;;;3.35;;
21235;SDS011;10775;42.678;26.324;2023-04-06T02:35:56;3.40;;;2.53;;
21235;SDS011;10775;42.678;26.324;2023-04-06T02:38:22;2.78;;;2.17;;
21235;SDS011;10775;42.678;26.324;2023-04-06T02:40:47;3.60;;;2.40;;
21235;SDS011;10775;42.678;26.324;2023-04-06T02:43:13;3.97;;;2.55;;
21235;SDS011;10775;42.678;26.324;2023-04-06T02:45:38;5.03;;;3.00;;
21235;SDS011;10775;42.678;26.324;2023-04-06T02:48:03;3.45;;;2.53;;
21235;SDS011;10775;42.678;26.324;2023-04-06T02:50:30;3.90;;;2.67;;
21235;SDS011;10775;42.678;26.324;2023-04-06T02:52:55;4.70;;;3.15;;
21235;SDS011;10775;42.678;26.324;2023-04-06T02:55:21;4.47;;;3.08;;
21235;SDS011;10775;42.678;26.324;2023-04-06T02:57:46;4.25;;;2.90;;
21235;SDS011;10775;42.678;26.324;2023-04-06T03:00:12;3.45;;;2.33;;
21235;SDS011;10775;42.678;26.324;2023-04-06T03:02:37;4.18;;;3.17;;
21235;SDS011;10775;42.678;26.324;2023-04-06T03:05:03;4.03;;;2.60;;
21235;SDS011;10775;42.678;26.324;2023-04-06T03:07:29;5.47;;;3.58;;
21235;SDS011;10775;42.678;26.324;2023-04-06T03:09:55;3.60;;;2.65;;
21235;SDS011;10775;42.678;26.324;2023-04-06T03:12:20;5.03;;;3.00;;
21235;SDS011;10775;42.678;26.324;2023-04-06T03:14:46;4.28;;;3.20;;
21235;SDS011;10775;42.678;26.324;2023-04-06T03:17:11;3.92;;;2.80;;
21235;SDS011;10775;42.678;26.324;2023-04-06T03:19:37;5.05;;;3.72;;
21235;SDS011;10775;42.678;26.324;2023-04-06T03:22:02;4.28;;;2.97;;
21235;SDS011;10775;42.678;26.324;2023-04-06T03:24:28;3.92;;;2.60;;
21235;SDS011;10775;42.678;26.324;2023-04-06T03:26:53;6.38;;;4.30;;
21235;SDS011;10775;42.678;26.324;2023-04-06T03:29:19;5.60;;;3.83;;
21235;SDS011;10775;42.678;26.324;2023-04-06T03:31:44;4.80;;;2.78;;
21235;SDS011;10775;42.678;26.324;2023-04-06T03:34:10;4.00;;;2.97;;
21235;SDS011;10775;42.678;26.324;2023-04-06T03:36:35;3.67;;;2.75;;
21235;SDS011;10775;42.678;26.324;2023-04-06T03:39:01;4.15;;;3.03;;
21235;SDS011;10775;42.678;26.324;2023-04-06T03:41:26;5.70;;;4.18;;
21235;SDS011;10775;42.678;26.324;2023-04-06T03:43:52;4.93;;;2.80;;
21235;SDS011;10775;42.678;26.324;2023-04-06T03:46:17;4.78;;;3.33;;
21235;SDS011;10775;42.678;26.324;2023-04-06T03:48:43;4.00;;;2.80;;
21235;SDS011;10775;42.678;26.324;2023-04-06T03:51:08;3.63;;;2.83;;
21235;SDS011;10775;42.678;26.324;2023-04-06T03:53:34;5.32;;;2.95;;
21235;SDS011;10775;42.678;26.324;2023-04-06T03:56:01;4.65;;;3.03;;
21235;SDS011;10775;42.678;26.324;2023-04-06T03:58:27;4.45;;;3.05;;
21235;SDS011;10775;42.678;26.324;2023-04-06T04:00:53;5.55;;;3.70;;
21235;SDS011;10775;42.678;26.324;2023-04-06T04:03:18;4.20;;;2.97;;
21235;SDS011;10775;42.678;26.324;2023-04-06T04:05:44;4.22;;;2.78;;
21235;SDS011;10775;42.678;26.324;2023-04-06T04:08:10;4.13;;;2.75;;
21235;SDS011;10775;42.678;26.324;2023-04-06T04:10:35;4.03;;;2.78;;
21235;SDS011;10775;42.678;26.324;2023-04-06T04:13:01;4.50;;;3.30;;
21235;SDS011;10775;42.678;26.324;2023-04-06T04:15:26;3.97;;;2.80;;
21235;SDS011;10775;42.678;26.324;2023-04-06T04:17:51;3.85;;;2.75;;
21235;SDS011;10775;42.678;26.324;2023-04-06T04:20:17;3.83;;;2.78;;
21235;SDS011;10775;42.678;26.324;2023-04-06T04:22:42;4.65;;;3.30;;
21235;SDS011;10775;42.678;26.324;2023-04-06T04:25:08;4.50;;;3.15;;
21235;SDS011;10775;42.678;26.324;2023-04-06T04:27:34;3.42;;;2.70;;
21235;SDS011;10775;42.678;26.324;2023-04-06T04:30:00;4.43;;;3.10;;
21235;SDS011;10775;42.678;26.324;2023-04-06T04:32:25;4.60;;;2.83;;
21235;SDS011;10775;42.678;26.324;2023-04-06T04:34:52;4.03;;;3.22;;
21235;SDS011;10775;42.678;26.324;2023-04-06T04:37:18;3.30;;;2.65;;
21235;SDS011;10775;42.678;26.324;2023-04-06T04:39:44;3.83;;;2.50;;
21235;SDS011;10775;42.678;26.324;2023-04-06T04:42:10;4.95;;;3.50;;
21235;SDS011;10775;42.678;26.324;2023-04-06T04:44:36;3.80;;;2.65;;
21235;SDS011;10775;42.678;26.324;2023-04-06T04:47:01;3.92;;;2.90;;
21235;SDS011;10775;42.678;26.324;2023-04-06T04:49:27;4.03;;;2.85;;
21235;SDS011;10775;42.678;26.324;2023-04-06T04:51:52;4.65;;;3.05;;
21235;SDS011;10775;42.678;26.324;2023-04-06T04:54:18;4.70;;;2.78;;
21235;SDS011;10775;42.678;26.324;2023-04-06T04:56:44;3.80;;;2.80;;
21235;SDS011;10775;42.678;26.324;2023-04-06T04:59:10;5.13;;;3.95;;
21235;SDS011;10775;42.678;26.324;2023-04-06T05:01:36;4.03;;;2.78;;
21235;SDS011;10775;42.678;26.324;2023-04-06T05:04:01;4.80;;;3.40;;
21235;SDS011;10775;42.678;26.324;2023-04-06T05:06:27;3.53;;;2.53;;
21235;SDS011;10775;42.678;26.324;2023-04-06T05:08:52;4.70;;;2.70;;
21235;SDS011;10775;42.678;26.324;2023-04-06T05:11:17;4.50;;;2.88;;
21235;SDS011;10775;42.678;26.324;2023-04-06T05:13:43;4.07;;;2.67;;
21235;SDS011;10775;42.678;26.324;2023-04-06T05:16:08;3.67;;;2.72;;
21235;SDS011;10775;42.678;26.324;2023-04-06T05:18:34;3.95;;;2.83;;
21235;SDS011;10775;42.678;26.324;2023-04-06T05:21:00;4.38;;;2.90;;
21235;SDS011;10775;42.678;26.324;2023-04-06T05:23:25;5.07;;;3.78;;
21235;SDS011;10775;42.678;26.324;2023-04-06T05:25:51;3.83;;;2.72;;
21235;SDS011;10775;42.678;26.324;2023-04-06T05:28:16;5.13;;;4.10;;
21235;SDS011;10775;42.678;26.324;2023-04-06T05:30:43;6.32;;;4.00;;
21235;SDS011;10775;42.678;26.324;2023-04-06T05:33:10;6.50;;;4.00;;
21235;SDS011;10775;42.678;26.324;2023-04-06T05:35:36;5.43;;;3.20;;
21235;SDS011;10775;42.678;26.324;2023-04-06T05:38:01;5.05;;;3.65;;
21235;SDS011;10775;42.678;26.324;2023-04-06T05:40:27;5.55;;;3.53;;
21235;SDS011;10775;42.678;26.324;2023-04-06T05:42:52;3.75;;;2.83;;
21235;SDS011;10775;42.678;26.324;2023-04-06T05:45:18;5.90;;;3.08;;
21235;SDS011;10775;42.678;26.324;2023-04-06T05:47:45;4.85;;;3.28;;
21235;SDS011;10775;42.678;26.324;2023-04-06T05:50:11;4.50;;;3.38;;
21235;SDS011;10775;42.678;26.324;2023-04-06T05:52:37;3.40;;;2.30;;
21235;SDS011;10775;42.678;26.324;2023-04-06T05:55:03;3.67;;;2.67;;
21235;SDS011;10775;42.678;26.324;2023-04-06T05:57:30;3.15;;;2.35;;
21235;SDS011;10775;42.678;26.324;2023-04-06T05:59:55;8.27;;;6.22;;
21235;SDS011;10775;42.678;26.324;2023-04-06T06:02:21;4.38;;;2.75;;
21235;SDS011;10775;42.678;26.324;2023-04-06T06:04:47;11.38;;;6.65;;
21235;SDS011;10775;42.678;26.324;2023-04-06T06:07:12;3.85;;;2.58;;
21235;SDS011;10775;42.678;26.324;2023-04-06T06:09:39;3.88;;;2.80;;
21235;SDS011;10775;42.678;26.324;2023-04-06T06:12:04;3.15;;;2.40;;
21235;SDS011;10775;42.678;26.324;2023-04-06T06:14:29;4.75;;;2.50;;
21235;SDS011;10775;42.678;26.324;2023-04-06T06:16:55;3.03;;;2.25;;
21235;SDS011;10775;42.678;26.324;2023-04-06T06:19:20;4.68;;;3.05;;
21235;SDS011;10775;42.678;26.324;2023-04-06T06:21:46;4.65;;;2.97;;
21235;SDS011;10775;42.678;26.324;2023-04-06T06:24:11;19.65;;;11.05;;
21235;SDS011;10775;42.678;26.324;2023-04-06T06:26:37;3.78;;;2.90;;
21235;SDS011;10775;42.678;26.324;2023-04-06T06:29:04;4.72;;;2.67;;
21235;SDS011;10775;42.678;26.324;2023-04-06T06:31:30;6.95;;;5.40;;
21235;SDS011;10775;42.678;26.324;2023-04-06T06:33:56;4.60;;;3.53;;
21235;SDS011;10775;42.678;26.324;2023-04-06T06:36:21;3.72;;;2.70;;
21235;SDS011;10775;42.678;26.324;2023-04-06T06:38:47;3.00;;;2.30;;
21235;SDS011;10775;42.678;26.324;2023-04-06T06:41:12;4.47;;;2.38;;
21235;SDS011;10775;42.678;26.324;2023-04-06T06:43:38;2.85;;;2.50;;
21235;SDS011;10775;42.678;26.324;2023-04-06T06:46:03;4.13;;;2.50;;
21235;SDS011;10775;42.678;26.324;2023-04-06T06:48:30;12.82;;;4.47;;
21235;SDS011;10775;42.678;26.324;2023-04-06T06:50:56;10.88;;;4.50;;
21235;SDS011;10775;42.678;26.324;2023-04-06T06:53:21;6.00;;;4.47;;
21235;SDS011;10775;42.678;26.324;2023-04-06T06:55:47;20.85;;;7.10;;
21235;SDS011;10775;42.678;26.324;2023-04-06T06:58:17;15.95;;;5.45;;
21235;SDS011;10775;42.678;26.324;2023-04-06T07:00:43;16.40;;;6.57;;
21235;SDS011;10775;42.678;26.324;2023-04-06T07:03:09;16.58;;;6.20;;
21235;SDS011;10775;42.678;26.324;2023-04-06T07:05:34;16.63;;;7.22;;
21235;SDS011;10775;42.678;26.324;2023-04-06T07:08:00;17.75;;;5.38;;
21235;SDS011;10775;42.678;26.324;2023-04-06T07:10:26;6.95;;;4.03;;
21235;SDS011;10775;42.678;26.324;2023-04-06T07:12:52;14.60;;;5.55;;
21235;SDS011;10775;42.678;26.324;2023-04-06T07:15:17;15.63;;;5.55;;
21235;SDS011;10775;42.678;26.324;2023-04-06T07:17:43;13.55;;;7.45;;
21235;SDS011;10775;42.678;26.324;2023-04-06T07:20:10;16.65;;;6.60;;
21235;SDS011;10775;42.678;26.324;2023-04-06T07:22:37;15.05;;;6.07;;
21235;SDS011;10775;42.678;26.324;2023-04-06T07:25:03;14.70;;;6.03;;
21235;SDS011;10775;42.678;26.324;2023-04-06T07:27:29;12.98;;;5.57;;
21235;SDS011;10775;42.678;26.324;2023-04-06T07:29:54;11.57;;;4.95;;
21235;SDS011;10775;42.678;26.324;2023-04-06T07:32:20;14.85;;;5.38;;
21235;SDS011;10775;42.678;26.324;2023-04-06T07:34:46;59.22;;;17.17;;
21235;SDS011;10775;42.678;26.324;2023-04-06T07:37:11;59.10;;;19.23;;
21235;SDS011;10775;42.678;26.324;2023-04-06T07:39:37;61.15;;;20.67;;
21235;SDS011;10775;42.678;26.324;2023-04-06T07:42:03;59.20;;;18.73;;
21235;SDS011;10775;42.678;26.324;2023-04-06T07:44:28;53.85;;;21.58;;
21235;SDS011;10775;42.678;26.324;2023-04-06T07:46:54;85.03;;;27.48;;
21235;SDS011;10775;42.678;26.324;2023-04-06T07:49:19;62.50;;;19.95;;
21235;SDS011;10775;42.678;26.324;2023-04-06T07:51:45;66.70;;;23.83;;
21235;SDS011;10775;42.678;26.324;2023-04-06T07:54:11;66.22;;;19.40;;
21235;SDS011;10775;42.678;26.324;2023-04-06T07:56:36;59.20;;;20.88;;
21235;SDS011;10775;42.678;26.324;2023-04-06T07:59:02;58.05;;;17.25;;
21235;SDS011;10775;42.678;26.324;2023-04-06T08:01:28;51.53;;;17.60;;
21235;SDS011;10775;42.678;26.324;2023-04-06T08:03:55;45.42;;;16.00;;
21235;SDS011;10775;42.678;26.324;2023-04-06T08:06:21;36.65;;;13.90;;
21235;SDS011;10775;42.678;26.324;2023-04-06T08:08:46;55.78;;;19.63;;
21235;SDS011;10775;42.678;26.324;2023-04-06T08:11:12;39.08;;;13.65;;
21235;SDS011;10775;42.678;26.324;2023-04-06T08:13:37;39.92;;;14.35;;
21235;SDS011;10775;42.678;26.324;2023-04-06T08:16:03;55.53;;;21.25;;
21235;SDS011;10775;42.678;26.324;2023-04-06T08:18:29;39.20;;;14.65;;
21235;SDS011;10775;42.678;26.324;2023-04-06T08:20:55;35.70;;;13.18;;
21235;SDS011;10775;42.678;26.324;2023-04-06T08:23:21;64.55;;;23.35;;
21235;SDS011;10775;42.678;26.324;2023-04-06T08:25:46;34.28;;;13.50;;
21235;SDS011;10775;42.678;26.324;2023-04-06T08:28:12;27.27;;;10.23;;
21235;SDS011;10775;42.678;26.324;2023-04-06T08:30:41;33.53;;;12.85;;
21235;SDS011;10775;42.678;26.324;2023-04-06T08:33:06;31.03;;;10.90;;
21235;SDS011;10775;42.678;26.324;2023-04-06T08:35:32;30.33;;;11.25;;
21235;SDS011;10775;42.678;26.324;2023-04-06T08:37:57;34.30;;;12.45;;
21235;SDS011;10775;42.678;26.324;2023-04-06T08:40:23;59.75;;;21.40;;
21235;SDS011;10775;42.678;26.324;2023-04-06T08:42:50;15.95;;;7.53;;
21235;SDS011;10775;42.678;26.324;2023-04-06T08:45:19;21.00;;;10.80;;
21235;SDS011;10775;42.678;26.324;2023-04-06T08:47:46;40.72;;;16.52;;
21235;SDS011;10775;42.678;26.324;2023-04-06T08:50:13;19.20;;;8.63;;
21235;SDS011;10775;42.678;26.324;2023-04-06T08:52:41;13.73;;;6.60;;
21235;SDS011;10775;42.678;26.324;2023-04-06T08:55:12;15.90;;;7.45;;
21235;SDS011;10775;42.678;26.324;2023-04-06T08:57:37;9.88;;;5.30;;
21235;SDS011;10775;42.678;26.324;2023-04-06T09:00:04;12.05;;;6.18;;
21235;SDS011;10775;42.678;26.324;2023-04-06T09:02:31;9.38;;;4.75;;
21235;SDS011;10775;42.678;26.324;2023-04-06T09:04:57;5.38;;;3.80;;
21235;SDS011;10775;42.678;26.324;2023-04-06T09:07:23;7.05;;;4.00;;
21235;SDS011;10775;42.678;26.324;2023-04-06T09:09:49;14.70;;;6.13;;
21235;SDS011;10775;42.678;26.324;2023-04-06T09:14:48;13.40;;;5.93;;
21235;SDS011;10775;42.678;26.324;2023-04-06T09:17:20;5.47;;;4.00;;
21235;SDS011;10775;42.678;26.324;2023-04-06T09:19:53;13.88;;;5.45;;
21235;SDS011;10775;42.678;26.324;2023-04-06T09:22:19;11.98;;;5.63;;
21235;SDS011;10775;42.678;26.324;2023-04-06T09:27:12;5.10;;;3.85;;
21235;SDS011;10775;42.678;26.324;2023-04-06T09:29:38;5.50;;;3.83;;
21235;SDS011;10775;42.678;26.324;2023-04-06T09:32:04;13.75;;;5.60;;
21235;SDS011;10775;42.678;26.324;2023-04-06T09:34:35;14.15;;;5.50;;
21235;SDS011;10775;42.678;26.324;2023-04-06T09:37:11;11.93;;;5.03;;
21235;SDS011;10775;42.678;26.324;2023-04-06T09:39:41;11.82;;;4.63;;
21235;SDS011;10775;42.678;26.324;2023-04-06T09:42:06;11.45;;;5.32;;
21235;SDS011;10775;42.678;26.324;2023-04-06T09:44:32;7.63;;;4.78;;
21235;SDS011;10775;42.678;26.324;2023-04-06T09:46:57;12.10;;;5.00;;
21235;SDS011;10775;42.678;26.324;2023-04-06T09:49:23;12.48;;;5.32;;
21235;SDS011;10775;42.678;26.324;2023-04-06T09:51:59;9.40;;;4.05;;
21235;SDS011;10775;42.678;26.324;2023-04-06T09:54:26;6.53;;;4.35;;
21235;SDS011;10775;42.678;26.324;2023-04-06T09:57:03;6.15;;;3.92;;
21235;SDS011;10775;42.678;26.324;2023-04-06T10:05:05;5.93;;;3.70;;
21235;SDS011;10775;42.678;26.324;2023-04-06T10:07:34;6.80;;;4.10;;
21235;SDS011;10775;42.678;26.324;2023-04-06T10:10:02;4.22;;;3.10;;
21235;SDS011;10775;42.678;26.324;2023-04-06T10:12:28;5.57;;;3.60;;
21235;SDS011;10775;42.678;26.324;2023-04-06T10:14:54;4.82;;;3.35;;
21235;SDS011;10775;42.678;26.324;2023-04-06T10:17:21;5.68;;;3.53;;
21235;SDS011;10775;42.678;26.324;2023-04-06T10:22:16;6.07;;;3.72;;
21235;SDS011;10775;42.678;26.324;2023-04-06T10:24:49;4.65;;;3.50;;
21235;SDS011;10775;42.678;26.324;2023-04-06T10:27:14;5.05;;;3.17;;
21235;SDS011;10775;42.678;26.324;2023-04-06T10:29:43;4.97;;;3.15;;
21235;SDS011;10775;42.678;26.324;2023-04-06T10:32:11;7.00;;;3.58;;
21235;SDS011;10775;42.678;26.324;2023-04-06T10:34:36;5.80;;;3.30;;
21235;SDS011;10775;42.678;26.324;2023-04-06T10:37:14;4.95;;;3.53;;
21235;SDS011;10775;42.678;26.324;2023-04-06T10:40:17;5.13;;;3.28;;
21235;SDS011;10775;42.678;26.324;2023-04-06T10:42:43;5.28;;;3.78;;
21235;SDS011;10775;42.678;26.324;2023-04-06T10:45:18;5.22;;;3.15;;
21235;SDS011;10775;42.678;26.324;2023-04-06T10:47:45;4.45;;;2.67;;
21235;SDS011;10775;42.678;26.324;2023-04-06T10:50:11;5.50;;;3.15;;
21235;SDS011;10775;42.678;26.324;2023-04-06T10:52:41;5.95;;;3.20;;
21235;SDS011;10775;42.678;26.324;2023-04-06T10:55:08;5.07;;;3.20;;
21235;SDS011;10775;42.678;26.324;2023-04-06T10:57:35;4.22;;;3.00;;
21235;SDS011;10775;42.678;26.324;2023-04-06T11:00:03;4.25;;;3.13;;
21235;SDS011;10775;42.678;26.324;2023-04-06T11:02:33;5.88;;;2.90;;
21235;SDS011;10775;42.678;26.324;2023-04-06T11:05:00;5.38;;;3.08;;
21235;SDS011;10775;42.678;26.324;2023-04-06T11:07:26;4.43;;;3.13;;
21235;SDS011;10775;42.678;26.324;2023-04-06T11:09:54;5.05;;;2.90;;
21235;SDS011;10775;42.678;26.324;2023-04-06T11:12:23;3.55;;;2.80;;
21235;SDS011;10775;42.678;26.324;2023-04-06T11:14:57;3.50;;;2.78;;
21235;SDS011;10775;42.678;26.324;2023-04-06T11:17:34;6.60;;;3.60;;
21235;SDS011;10775;42.678;26.324;2023-04-06T11:20:01;4.97;;;2.92;;
21235;SDS011;10775;42.678;26.324;2023-04-06T11:22:28;4.07;;;2.92;;
21235;SDS011;10775;42.678;26.324;2023-04-06T11:25:04;7.85;;;5.63;;
21235;SDS011;10775;42.678;26.324;2023-04-06T11:27:33;5.20;;;3.63;;
21235;SDS011;10775;42.678;26.324;2023-04-06T11:30:00;4.13;;;3.42;;
21235;SDS011;10775;42.678;26.324;2023-04-06T11:32:26;3.88;;;2.53;;
21235;SDS011;10775;42.678;26.324;2023-04-06T11:34:52;4.85;;;3.28;;
21235;SDS011;10775;42.678;26.324;2023-04-06T11:37:18;4.05;;;3.35;;
21235;SDS011;10775;42.678;26.324;2023-04-06T11:42:26;19.67;;;10.73;;
21235;SDS011;10775;42.678;26.324;2023-04-06T11:44:55;4.50;;;3.17;;
21235;SDS011;10775;42.678;26.324;2023-04-06T11:47:26;3.63;;;2.50;;
21235;SDS011;10775;42.678;26.324;2023-04-06T11:49:53;3.35;;;2.50;;
21235;SDS011;10775;42.678;26.324;2023-04-06T11:52:25;6.80;;;4.32;;
21235;SDS011;10775;42.678;26.324;2023-04-06T11:54:52;4.20;;;2.70;;
21235;SDS011;10775;42.678;26.324;2023-04-06T11:57:20;3.90;;;2.88;;
21235;SDS011;10775;42.678;26.324;2023-04-06T11:59:48;4.18;;;2.90;;
21235;SDS011;10775;42.678;26.324;2023-04-06T12:02:13;3.35;;;2.67;;
21235;SDS011;10775;42.678;26.324;2023-04-06T12:04:39;4.07;;;2.65;;
21235;SDS011;10775;42.678;26.324;2023-04-06T12:07:04;3.60;;;2.83;;
21235;SDS011;10775;42.678;26.324;2023-04-06T12:09:30;4.43;;;2.80;;
21235;SDS011;10775;42.678;26.324;2023-04-06T12:11:56;6.13;;;4.00;;
21235;SDS011;10775;42.678;26.324;2023-04-06T12:14:22;6.72;;;3.85;;
21235;SDS011;10775;42.678;26.324;2023-04-06T12:16:48;3.85;;;2.95;;
21235;SDS011;10775;42.678;26.324;2023-04-06T12:19:13;3.33;;;2.40;;
21235;SDS011;10775;42.678;26.324;2023-04-06T12:21:39;4.45;;;3.03;;
21235;SDS011;10775;42.678;26.324;2023-04-06T12:24:05;4.35;;;2.88;;
21235;SDS011;10775;42.678;26.324;2023-04-06T12:26:31;5.03;;;2.70;;
21235;SDS011;10775;42.678;26.324;2023-04-06T12:28:57;4.30;;;3.10;;
21235;SDS011;10775;42.678;26.324;2023-04-06T12:31:30;4.20;;;2.88;;
21235;SDS011;10775;42.678;26.324;2023-04-06T12:33:55;4.40;;;2.90;;
21235;SDS011;10775;42.678;26.324;2023-04-06T12:36:20;4.05;;;2.90;;
21235;SDS011;10775;42.678;26.324;2023-04-06T12:38:46;4.53;;;3.33;;
21235;SDS011;10775;42.678;26.324;2023-04-06T12:41:13;5.22;;;3.53;;
21235;SDS011;10775;42.678;26.324;2023-04-06T12:43:39;9.35;;;8.40;;
21235;SDS011;10775;42.678;26.324;2023-04-06T12:46:05;5.68;;;3.42;;
21235;SDS011;10775;42.678;26.324;2023-04-06T12:48:30;6.18;;;3.17;;
21235;SDS011;10775;42.678;26.324;2023-04-06T12:50:57;4.85;;;3.70;;
21235;SDS011;10775;42.678;26.324;2023-04-06T12:53:24;5.80;;;3.90;;
21235;SDS011;10775;42.678;26.324;2023-04-06T12:55:50;4.85;;;3.47;;
21235;SDS011;10775;42.678;26.324;2023-04-06T12:58:16;8.10;;;5.93;;
21235;SDS011;10775;42.678;26.324;2023-04-06T13:00:43;6.30;;;4.25;;
21235;SDS011;10775;42.678;26.324;2023-04-06T13:03:08;6.18;;;4.25;;
21235;SDS011;10775;42.678;26.324;2023-04-06T13:05:34;6.28;;;4.63;;
21235;SDS011;10775;42.678;26.324;2023-04-06T13:07:59;6.97;;;3.88;;
21235;SDS011;10775;42.678;26.324;2023-04-06T13:10:25;5.22;;;4.03;;
21235;SDS011;10775;42.678;26.324;2023-04-06T13:12:51;6.25;;;3.72;;
21235;SDS011;10775;42.678;26.324;2023-04-06T13:15:17;22.65;;;9.27;;
21235;SDS011;10775;42.678;26.324;2023-04-06T13:17:42;17.73;;;7.57;;
21235;SDS011;10775;42.678;26.324;2023-04-06T13:20:08;24.95;;;9.80;;
21235;SDS011;10775;42.678;26.324;2023-04-06T13:22:34;16.98;;;8.88;;
21235;SDS011;10775;42.678;26.324;2023-04-06T13:24:59;19.45;;;9.68;;
21235;SDS011;10775;42.678;26.324;2023-04-06T13:27:25;24.08;;;8.88;;
21235;SDS011;10775;42.678;26.324;2023-04-06T13:29:50;20.67;;;9.20;;
21235;SDS011;10775;42.678;26.324;2023-04-06T13:32:16;20.33;;;9.23;;
21235;SDS011;10775;42.678;26.324;2023-04-06T13:34:41;19.90;;;9.95;;
21235;SDS011;10775;42.678;26.324;2023-04-06T13:37:11;16.85;;;8.02;;
21235;SDS011;10775;42.678;26.324;2023-04-06T13:39:40;17.13;;;7.50;;
21235;SDS011;10775;42.678;26.324;2023-04-06T13:42:05;15.70;;;7.05;;
21235;SDS011;10775;42.678;26.324;2023-04-06T13:44:31;13.70;;;7.00;;
21235;SDS011;10775;42.678;26.324;2023-04-06T13:46:57;15.13;;;7.05;;
21235;SDS011;10775;42.678;26.324;2023-04-06T13:49:23;13.18;;;5.68;;
21235;SDS011;10775;42.678;26.324;2023-04-06T13:51:48;6.88;;;5.82;;
21235;SDS011;10775;42.678;26.324;2023-04-06T13:54:14;12.30;;;5.55;;
21235;SDS011;10775;42.678;26.324;2023-04-06T13:56:39;11.15;;;5.47;;
21235;SDS011;10775;42.678;26.324;2023-04-06T13:59:05;13.68;;;7.72;;
21235;SDS011;10775;42.678;26.324;2023-04-06T14:01:30;13.43;;;6.50;;
21235;SDS011;10775;42.678;26.324;2023-04-06T14:03:56;14.15;;;5.93;;
21235;SDS011;10775;42.678;26.324;2023-04-06T14:06:21;21.25;;;6.07;;
21235;SDS011;10775;42.678;26.324;2023-04-06T14:08:47;12.80;;;5.47;;
21235;SDS011;10775;42.678;26.324;2023-04-06T14:11:12;10.95;;;5.35;;
21235;SDS011;10775;42.678;26.324;2023-04-06T14:13:39;11.82;;;5.03;;
21235;SDS011;10775;42.678;26.324;2023-04-06T14:16:05;8.80;;;4.63;;
21235;SDS011;10775;42.678;26.324;2023-04-06T14:18:31;9.07;;;5.13;;
21235;SDS011;10775;42.678;26.324;2023-04-06T14:20:59;9.65;;;5.00;;
21235;SDS011;10775;42.678;26.324;2023-04-06T14:23:25;10.50;;;4.97;;
21235;SDS011;10775;42.678;26.324;2023-04-06T14:26:03;10.20;;;4.45;;
21235;SDS011;10775;42.678;26.324;2023-04-06T14:28:30;8.23;;;4.63;;
21235;SDS011;10775;42.678;26.324;2023-04-06T14:31:00;10.48;;;4.22;;
21235;SDS011;10775;42.678;26.324;2023-04-06T14:33:27;5.72;;;4.03;;
21235;SDS011;10775;42.678;26.324;2023-04-06T14:35:53;6.53;;;4.22;;
21235;SDS011;10775;42.678;26.324;2023-04-06T14:38:18;8.15;;;4.40;;
21235;SDS011;10775;42.678;26.324;2023-04-06T14:40:44;9.15;;;4.53;;